Hardyston, New Jersey
Current Conditions -  °F | °C
As of 11:05 AM on Monday 26 Jan 2015 (Local Time) from KFWN Reporting Station
Light Snow Light Snow  
Wind Chill:   Ceiling: 2400
Heat Index: 15°   Visibility: 1mi
Dew Point:   Wind: 14mph
Humidity: 74%   Direction: 40°NE
Pressure: 29.97"   Gusts: NA
Location:  41.1518°N, 74.5855°W
Report Text: KFWN 261605Z AUTO 04012KT 1SM -SN BKN024 OVC032 M09/M13 A2997 RMK AO2 P0000 T10941133
Loading
Personal Weather Stations






























Interactive Weather Map New forecast layout! Learn more

10-Day Weather Forecast

Advertisements
Track Severe Weather on mobile